createdAt,value
2019-03-12T00:04:02.235Z,41.90
2019-03-12T00:10:47.079Z,42.00
2019-03-12T00:17:32.048Z,42.10
2019-03-12T00:24:17.174Z,42.20
2019-03-12T00:31:02.018Z,42.10
2019-03-12T00:37:46.875Z,42.40
2019-03-12T00:44:32.764Z,43.20
2019-03-12T00:51:18.678Z,43.40
2019-03-12T00:58:03.601Z,43.50
2019-03-12T01:04:48.514Z,44.00
2019-03-12T01:11:33.374Z,44.90
2019-03-12T01:18:18.297Z,44.80
2019-03-12T01:25:03.380Z,44.80
2019-03-12T01:31:48.343Z,44.80
2019-03-12T01:38:33.191Z,45.40
2019-03-12T01:45:18.044Z,46.50
2019-03-12T01:52:03.435Z,46.60
2019-03-12T01:58:48.453Z,46.10
2019-03-12T02:05:33.306Z,45.40
2019-03-12T02:12:18.255Z,45.10
2019-03-12T02:19:03.180Z,45.00
2019-03-12T02:25:48.027Z,45.20
2019-03-12T02:32:32.881Z,45.20
2019-03-12T02:39:17.797Z,45.10
2019-03-12T02:46:02.729Z,45.10
2019-03-12T02:52:47.864Z,45.50
2019-03-12T02:59:33.054Z,45.80
2019-03-12T03:06:22.747Z,46.40
2019-03-12T03:13:07.699Z,47.10
2019-03-12T03:19:52.621Z,47.60
2019-03-12T03:26:37.547Z,48.70
2019-03-12T03:33:22.424Z,49.40
2019-03-12T03:40:07.708Z,50.10
2019-03-12T03:46:52.851Z,50.80
2019-03-12T03:53:37.717Z,51.40
2019-03-12T04:00:24.019Z,51.50
2019-03-12T04:07:08.998Z,52.20
2019-03-12T04:13:54.152Z,52.50
2019-03-12T04:20:39.090Z,53.10
2019-03-12T04:27:24.152Z,53.80
2019-03-12T04:34:12.855Z,54.80
2019-03-12T04:40:57.717Z,54.90
2019-03-12T04:47:42.886Z,55.30
2019-03-12T04:54:28.868Z,55.70
2019-03-12T05:01:14.019Z,55.10
2019-03-12T05:07:58.872Z,55.40
2019-03-12T05:14:43.727Z,55.80
2019-03-12T05:21:29.548Z,56.00
2019-03-12T05:28:14.530Z,56.40
2019-03-12T05:34:59.468Z,56.40
2019-03-12T05:41:44.387Z,56.50
2019-03-12T05:48:29.322Z,56.30
2019-03-12T05:55:17.907Z,55.20
2019-03-12T06:02:02.826Z,55.60
2019-03-12T06:08:47.887Z,55.60
2019-03-12T06:15:32.730Z,55.30
2019-03-12T06:22:17.676Z,55.20
2019-03-12T06:29:02.528Z,54.20
2019-03-12T06:35:54.208Z,53.00
2019-03-12T06:42:40.252Z,51.90
2019-03-12T06:49:29.483Z,50.40
2019-03-12T06:56:29.035Z,47.70
2019-03-12T07:03:34.585Z,46.80
2019-03-12T07:10:21.851Z,33.40
2019-03-12T07:17:09.088Z,23.70
2019-03-12T07:24:01.739Z,21.00
2019-03-12T07:30:54.379Z,20.30
2019-03-12T07:37:41.088Z,19.70
2019-03-12T07:44:33.988Z,19.00
2019-03-12T07:51:37.251Z,18.00
2019-03-12T07:58:36.382Z,17.10
2019-03-12T08:05:28.298Z,17.40
2019-03-12T08:12:29.582Z,17.50
2019-03-12T08:19:19.175Z,17.20
2019-03-12T08:26:05.910Z,17.00
2019-03-12T08:33:01.466Z,17.20
2019-03-12T08:40:02.751Z,17.20
2019-03-12T08:47:06.007Z,16.60
2019-03-12T08:53:52.547Z,17.20
2019-03-12T09:00:45.159Z,16.60
2019-03-12T09:07:40.579Z,16.60
2019-03-12T09:14:27.081Z,16.30
2019-03-12T09:21:29.687Z,16.60
2019-03-12T09:28:32.839Z,16.60
2019-03-12T09:35:37.798Z,17.40
2019-03-12T09:42:24.385Z,16.60
2019-03-12T09:49:27.880Z,16.10
2019-03-12T09:56:17.123Z,15.70
2019-03-12T10:03:03.683Z,15.20
2019-03-12T10:09:50.332Z,15.10
2019-03-12T10:16:39.872Z,14.70
2019-03-12T10:23:43.559Z,16.40
2019-03-12T10:30:42.191Z,16.30
2019-03-12T10:37:37.805Z,15.60
2019-03-12T10:44:30.155Z,16.20
2019-03-12T10:51:15.157Z,15.70
2019-03-12T10:58:00.107Z,15.70
2019-03-12T11:04:45.028Z,16.50
2019-03-12T11:11:30.509Z,18.00
2019-03-12T11:18:15.476Z,19.70
2019-03-12T11:25:00.395Z,18.60
2019-03-12T11:31:46.299Z,17.60
2019-03-12T11:38:31.308Z,18.40
2019-03-12T11:45:19.596Z,18.60
2019-03-12T11:52:03.675Z,19.10
2019-03-12T11:58:48.601Z,17.70
2019-03-12T12:05:33.531Z,15.50
2019-03-12T12:12:18.571Z,17.50
2019-03-12T12:19:03.603Z,15.90
2019-03-12T12:25:48.554Z,16.30
2019-03-12T12:32:33.599Z,16.80
2019-03-12T12:39:18.710Z,16.30
2019-03-12T12:46:03.726Z,15.20
2019-03-12T12:52:48.656Z,14.40
2019-03-12T12:59:33.599Z,16.10
2019-03-12T13:06:18.712Z,16.90
2019-03-12T13:13:03.803Z,17.70
2019-03-12T13:19:48.792Z,18.30
2019-03-12T13:26:33.796Z,17.60
2019-03-12T13:33:18.652Z,16.70
2019-03-12T13:40:05.248Z,17.10
2019-03-12T13:46:50.561Z,17.20
2019-03-12T13:53:36.477Z,17.60
2019-03-12T14:00:22.652Z,17.40
2019-03-12T14:07:07.575Z,16.90
2019-03-12T14:13:52.509Z,16.90
2019-03-12T14:20:43.526Z,16.70
2019-03-12T14:27:29.118Z,17.20
2019-03-12T14:34:14.068Z,16.60
2019-03-12T14:40:59.451Z,17.20
2019-03-12T14:47:44.306Z,17.20
2019-03-12T14:54:29.370Z,17.30
2019-03-12T15:01:15.037Z,17.30
2019-03-12T15:08:00.686Z,17.70
2019-03-12T15:14:45.651Z,18.30
2019-03-12T15:21:30.512Z,18.50
2019-03-12T15:28:15.517Z,18.20
2019-03-12T15:35:00.383Z,18.60
2019-03-12T15:41:45.314Z,18.00
2019-03-12T15:48:30.320Z,17.20
2019-03-12T15:55:15.327Z,17.60
2019-03-12T16:02:00.410Z,17.90
2019-03-12T16:08:45.471Z,18.00
2019-03-12T16:15:30.331Z,17.40
2019-03-12T16:22:15.196Z,17.60
2019-03-12T16:29:00.123Z,17.60
2019-03-12T16:35:44.990Z,18.20
2019-03-12T16:42:34.854Z,19.20
2019-03-12T16:49:16.415Z,21.20
2019-03-12T16:56:01.342Z,22.00
2019-03-12T17:02:46.514Z,22.50
2019-03-12T17:09:31.444Z,23.10
2019-03-12T17:16:16.448Z,23.20
2019-03-12T17:23:01.383Z,23.40
2019-03-12T17:29:46.418Z,24.60
2019-03-12T17:36:31.328Z,24.70
2019-03-12T17:43:16.247Z,24.90
2019-03-12T17:50:01.099Z,24.90
2019-03-12T17:56:46.100Z,24.80
2019-03-12T18:03:31.426Z,24.70
2019-03-12T18:10:17.648Z,24.60
2019-03-12T18:17:02.627Z,24.20
2019-03-12T18:23:47.596Z,24.00
2019-03-12T18:30:32.603Z,23.70
2019-03-12T18:37:17.531Z,24.10
2019-03-12T18:44:02.383Z,24.00
2019-03-12T18:50:47.267Z,23.40
2019-03-12T18:57:32.136Z,23.00
2019-03-12T19:04:17.048Z,23.40
2019-03-12T19:11:02.128Z,23.50
2019-03-12T19:17:47.115Z,23.60
2019-03-12T19:24:32.156Z,23.80
2019-03-12T19:31:18.643Z,23.20
2019-03-12T19:38:04.294Z,22.50
2019-03-12T19:44:49.577Z,22.20
2019-03-12T19:51:34.517Z,21.60
2019-03-12T19:58:19.436Z,21.10
2019-03-12T20:05:05.939Z,21.00
2019-03-12T20:11:59.948Z,20.70
2019-03-12T20:19:17.892Z,20.70
2019-03-12T20:26:34.335Z,20.80
2019-03-12T20:33:37.552Z,20.70
2019-03-12T20:40:34.384Z,21.50
2019-03-12T20:47:39.291Z,22.10
2019-03-12T20:54:49.990Z,21.80
2019-03-12T21:02:11.239Z,22.00
2019-03-12T21:09:17.943Z,22.30
2019-03-12T21:16:22.268Z,22.50
2019-03-12T21:23:19.470Z,21.90
2019-03-12T21:30:03.526Z,22.00
2019-03-12T21:36:50.137Z,22.00
2019-03-12T21:43:35.208Z,22.20
2019-03-12T21:50:20.260Z,22.60
2019-03-12T21:57:05.327Z,22.20
2019-03-12T22:03:50.343Z,22.20
2019-03-12T22:10:35.201Z,22.50
2019-03-12T22:17:20.964Z,22.70
2019-03-12T22:24:07.535Z,23.20
2019-03-12T22:30:53.376Z,23.50
2019-03-12T22:37:38.935Z,23.10
2019-03-12T22:44:23.932Z,24.00
2019-03-12T22:51:09.220Z,23.10
2019-03-12T22:57:54.068Z,22.80
2019-03-12T23:04:56.486Z,22.70
2019-03-12T23:11:59.727Z,22.80
2019-03-12T23:18:47.611Z,22.00
2019-03-12T23:25:32.858Z,22.40
2019-03-12T23:32:18.963Z,22.80
2019-03-12T23:39:06.282Z,25.00
2019-03-12T23:45:53.628Z,26.70
2019-03-12T23:52:39.763Z,29.70
2019-03-12T23:59:24.935Z,31.50
